createdAt,value
2023-05-21T00:00:33.939Z,8.00
2023-05-21T00:03:06.122Z,7.70
2023-05-21T00:05:43.921Z,7.75
2023-05-21T00:08:37.824Z,7.85
2023-05-21T00:11:25.530Z,8.35
2023-05-21T00:13:56.185Z,7.90
2023-05-21T00:16:33.356Z,9.70
2023-05-21T00:19:15.341Z,8.40
2023-05-21T00:21:56.068Z,8.80
2023-05-21T00:24:31.478Z,9.15
2023-05-21T00:27:01.585Z,7.97
2023-05-21T00:29:33.750Z,7.82
2023-05-21T00:32:03.687Z,7.90
2023-05-21T00:34:45.975Z,9.13
2023-05-21T00:37:21.227Z,7.72
2023-05-21T00:40:00.297Z,9.20
2023-05-21T00:42:33.811Z,7.75
2023-05-21T00:45:04.107Z,9.55
2023-05-21T00:47:42.950Z,8.82
2023-05-21T00:50:15.246Z,8.25
2023-05-21T00:52:49.032Z,9.35
2023-05-21T00:55:24.199Z,7.22
2023-05-21T00:58:04.363Z,9.32
2023-05-21T01:00:42.249Z,7.65
2023-05-21T01:03:16.957Z,7.60
2023-05-21T01:05:56.087Z,8.05
2023-05-21T01:08:39.336Z,7.28
2023-05-21T01:11:15.606Z,7.07
2023-05-21T01:13:59.439Z,7.22
2023-05-21T01:17:15.061Z,7.32
2023-05-21T01:19:55.852Z,6.95
2023-05-21T01:22:29.677Z,9.20
2023-05-21T01:25:11.746Z,7.40
2023-05-21T01:27:44.100Z,9.20
2023-05-21T01:30:33.389Z,7.63
2023-05-21T01:33:10.665Z,7.50
2023-05-21T01:35:54.290Z,8.23
2023-05-21T01:38:29.774Z,7.45
2023-05-21T01:41:15.553Z,7.50
2023-05-21T01:43:56.771Z,7.30
2023-05-21T01:46:34.852Z,8.07
2023-05-21T01:49:23.083Z,8.13
2023-05-21T01:51:51.620Z,7.53
2023-05-21T01:54:24.999Z,6.85
2023-05-21T01:57:03.684Z,7.03
2023-05-21T01:59:41.124Z,7.80
2023-05-21T02:02:23.429Z,6.68
2023-05-21T02:05:10.243Z,6.97
2023-05-21T02:07:43.878Z,8.02
2023-05-21T02:10:31.542Z,7.15
2023-05-21T02:13:05.774Z,6.78
2023-05-21T02:15:39.031Z,6.95
2023-05-21T02:18:16.965Z,7.28
2023-05-21T02:20:58.661Z,6.93
2023-05-21T02:24:05.843Z,7.30
2023-05-21T02:26:49.016Z,8.27
2023-05-21T02:29:31.098Z,7.65
2023-05-21T02:32:03.576Z,7.25
2023-05-21T02:34:52.291Z,7.72
2023-05-21T02:37:29.272Z,8.23
2023-05-21T02:42:56.709Z,6.78
2023-05-21T02:45:49.070Z,6.68
2023-05-21T02:48:27.639Z,7.40
2023-05-21T02:51:04.059Z,7.55
2023-05-21T02:53:51.484Z,7.80
2023-05-21T02:56:34.951Z,7.07
2023-05-21T02:59:31.793Z,8.07
2023-05-21T03:05:05.533Z,7.38
2023-05-21T03:07:43.051Z,8.52
2023-05-21T03:10:34.563Z,7.72
2023-05-21T03:13:14.771Z,7.10
2023-05-21T03:15:46.834Z,7.10
2023-05-21T03:18:36.506Z,7.72
2023-05-21T03:21:17.780Z,7.72
2023-05-21T03:23:59.992Z,7.20
2023-05-21T03:26:45.769Z,7.97
2023-05-21T03:29:30.139Z,6.82
2023-05-21T03:32:04.444Z,9.63
2023-05-21T03:34:54.095Z,8.23
2023-05-21T03:37:39.828Z,7.30
2023-05-21T03:40:20.300Z,7.65
2023-05-21T03:43:27.912Z,7.82
2023-05-21T03:46:11.139Z,6.68
2023-05-21T03:48:56.881Z,8.02
2023-05-21T03:51:41.525Z,7.05
2023-05-21T03:57:00.805Z,6.88
2023-05-21T03:59:56.877Z,7.38
2023-05-21T04:02:31.883Z,7.72
2023-05-21T04:05:12.062Z,7.32
2023-05-21T04:07:52.703Z,7.65
2023-05-21T04:10:44.440Z,7.65
2023-05-21T04:13:23.414Z,6.85
2023-05-21T04:16:10.336Z,7.72
2023-05-21T04:19:07.947Z,6.78
2023-05-21T04:21:50.339Z,7.38
2023-05-21T04:24:29.688Z,8.20
2023-05-21T04:27:11.193Z,7.22
2023-05-21T04:29:43.128Z,7.82
2023-05-21T04:32:20.006Z,7.45
2023-05-21T04:35:08.463Z,7.93
2023-05-21T04:41:03.881Z,7.60
2023-05-21T04:43:36.457Z,9.18
2023-05-21T04:46:28.705Z,6.85
2023-05-21T04:49:03.260Z,6.80
2023-05-21T04:51:38.852Z,6.22
2023-05-21T04:54:28.429Z,7.07
2023-05-21T04:57:34.607Z,6.50
2023-05-21T05:00:28.221Z,6.78
2023-05-21T05:03:09.918Z,6.68
2023-05-21T05:05:43.289Z,6.82
2023-05-21T05:08:17.815Z,5.97
2023-05-21T05:11:02.652Z,6.18
2023-05-21T05:13:41.383Z,6.32
2023-05-21T05:16:17.532Z,5.95
2023-05-21T05:19:14.342Z,6.63
2023-05-21T05:21:48.866Z,5.97
2023-05-21T05:24:31.729Z,6.13
2023-05-21T05:27:08.228Z,6.07
2023-05-21T05:29:50.500Z,5.82
2023-05-21T05:32:48.270Z,6.13
2023-05-21T05:35:35.298Z,6.35
2023-05-21T05:38:37.030Z,6.85
2023-05-21T05:41:20.034Z,6.63
2023-05-21T05:43:54.948Z,5.70
2023-05-21T05:46:29.139Z,6.22
2023-05-21T05:49:24.708Z,5.72
2023-05-21T05:52:08.664Z,6.20
2023-05-21T05:55:05.570Z,6.85
2023-05-21T05:57:51.845Z,5.85
2023-05-21T06:00:26.421Z,6.38
2023-05-21T06:03:02.859Z,6.38
2023-05-21T06:05:43.566Z,6.00
2023-05-21T06:08:32.253Z,6.15
2023-05-21T06:11:07.222Z,6.38
2023-05-21T06:13:41.614Z,6.70
2023-05-21T06:16:20.740Z,7.13
2023-05-21T06:18:57.182Z,6.70
2023-05-21T06:21:32.272Z,6.97
2023-05-21T06:24:03.653Z,7.05
2023-05-21T06:26:32.003Z,6.97
2023-05-21T06:29:07.044Z,11.55
2023-05-21T06:31:44.779Z,9.05
2023-05-21T06:34:20.395Z,8.32
2023-05-21T06:36:50.379Z,7.43
2023-05-21T06:39:32.106Z,8.95
2023-05-21T06:42:10.212Z,9.55
2023-05-21T06:44:47.800Z,10.07
2023-05-21T06:47:25.868Z,8.63
2023-05-21T06:49:59.505Z,9.50
2023-05-21T06:52:38.980Z,9.75
2023-05-21T06:59:33.082Z,9.02
2023-05-21T07:02:12.196Z,10.18
2023-05-21T07:12:20.658Z,10.65
2023-05-21T07:14:56.466Z,11.27
2023-05-21T07:17:30.113Z,11.57
2023-05-21T07:20:13.515Z,11.50
2023-05-21T07:22:44.885Z,11.98
2023-05-21T07:25:20.996Z,14.40
2023-05-21T07:27:56.205Z,12.27
2023-05-21T07:30:31.947Z,11.30
2023-05-21T07:33:00.090Z,13.25
2023-05-21T07:35:29.037Z,12.90
2023-05-21T07:38:00.845Z,12.48
2023-05-21T07:40:29.223Z,11.02
2023-05-21T07:43:04.536Z,14.05
2023-05-21T07:45:40.946Z,11.52
2023-05-21T07:48:22.200Z,12.35
2023-05-21T07:50:52.578Z,11.68
2023-05-21T07:53:35.119Z,11.68
2023-05-21T07:56:03.293Z,11.27
2023-05-21T07:58:35.705Z,9.18
2023-05-21T08:01:16.143Z,9.52
2023-05-21T08:03:46.999Z,10.40
2023-05-21T08:07:02.128Z,12.02
2023-05-21T08:09:35.159Z,9.80
2023-05-21T08:12:14.355Z,10.05
2023-05-21T08:16:41.748Z,9.48
2023-05-21T09:21:28.028Z,10.63
2023-05-21T09:23:57.744Z,9.35
2023-05-21T09:26:26.599Z,11.90
2023-05-21T09:29:26.446Z,11.27
2023-05-21T09:32:33.595Z,11.32
2023-05-21T09:35:13.633Z,12.07
2023-05-21T09:37:45.097Z,11.38
2023-05-21T09:40:17.537Z,11.30
2023-05-21T09:42:50.374Z,14.07
2023-05-21T09:45:23.836Z,11.95
2023-05-21T09:47:53.999Z,12.00
2023-05-21T09:50:28.362Z,12.05
2023-05-21T09:53:00.404Z,12.40
2023-05-21T09:55:31.796Z,13.43
2023-05-21T09:58:04.703Z,13.60
2023-05-21T10:00:36.229Z,13.05
2023-05-21T10:03:11.042Z,11.13
2023-05-21T10:05:39.591Z,12.60
2023-05-21T10:08:12.261Z,13.07
2023-05-21T10:14:21.269Z,11.63
2023-05-21T10:17:07.502Z,12.65
2023-05-21T10:17:08.974Z,13.45
2023-05-21T10:19:40.493Z,14.48
2023-05-21T10:22:09.807Z,12.30
2023-05-21T10:24:45.431Z,11.90
2023-05-21T10:30:30.049Z,12.75
2023-05-21T10:33:05.751Z,13.20
2023-05-21T10:35:40.513Z,12.30
2023-05-21T10:42:21.315Z,13.15
2023-05-21T10:45:11.322Z,12.13
2023-05-21T10:48:20.594Z,13.45
2023-05-21T10:51:38.783Z,14.38
2023-05-21T10:54:58.255Z,12.48
2023-05-21T11:02:22.564Z,14.10
2023-05-21T12:00:26.243Z,13.45
2023-05-21T12:03:27.951Z,13.68
2023-05-21T12:06:06.365Z,14.23
2023-05-21T12:08:58.949Z,13.55
2023-05-21T12:20:17.547Z,13.18
2023-05-21T12:27:43.503Z,13.68
2023-05-21T12:35:04.003Z,13.05
2023-05-21T12:38:09.073Z,12.43
2023-05-21T12:40:41.497Z,13.45
2023-05-21T12:43:10.747Z,13.73
2023-05-21T12:45:44.573Z,13.82
2023-05-21T12:48:13.320Z,13.57
2023-05-21T12:50:44.261Z,13.00
2023-05-21T12:53:14.242Z,13.90
2023-05-21T12:55:42.566Z,14.13
2023-05-21T12:58:36.084Z,14.23
2023-05-21T13:01:29.724Z,13.15
2023-05-21T13:04:48.056Z,14.55
2023-05-21T13:10:39.157Z,14.27
2023-05-21T13:17:04.309Z,13.43
2023-05-21T13:20:20.919Z,14.52
2023-05-21T13:23:11.414Z,14.88
2023-05-21T13:25:49.630Z,14.60
2023-05-21T13:28:23.166Z,14.05
2023-05-21T13:31:31.352Z,13.30
2023-05-21T13:34:40.293Z,13.82
2023-05-21T13:37:24.390Z,15.48
2023-05-21T13:40:07.326Z,14.63
2023-05-21T13:46:35.056Z,14.50
2023-05-21T13:49:49.954Z,15.70
2023-05-21T13:55:19.780Z,14.68
2023-05-21T14:00:06.745Z,14.93
2023-05-21T14:02:59.209Z,15.10
2023-05-21T14:06:15.510Z,14.35
2023-05-21T14:09:30.937Z,13.27
2023-05-21T15:00:03.258Z,12.55
2023-05-21T15:02:59.110Z,13.60
2023-05-21T15:05:40.192Z,13.65
2023-05-21T15:11:04.641Z,13.68
2023-05-21T15:13:34.775Z,13.07
2023-05-21T15:16:09.529Z,13.07
2023-05-21T15:18:40.558Z,12.95
2023-05-21T15:21:10.128Z,12.43
2023-05-21T15:23:43.739Z,12.05
2023-05-21T15:26:13.153Z,12.02
2023-05-21T15:28:41.261Z,13.55
2023-05-21T15:31:35.944Z,12.00
2023-05-21T15:34:07.126Z,12.13
2023-05-21T15:36:38.008Z,11.88
2023-05-21T15:39:29.065Z,12.45
2023-05-21T15:41:59.764Z,12.55
2023-05-21T15:44:32.790Z,12.75
2023-05-21T15:47:11.578Z,12.30
2023-05-21T15:49:43.966Z,12.30
2023-05-21T15:52:16.446Z,11.93
2023-05-21T15:54:57.074Z,12.25
2023-05-21T15:57:29.898Z,12.60
2023-05-21T16:00:16.294Z,11.60
2023-05-21T16:02:51.861Z,12.45
2023-05-21T16:05:27.285Z,12.40
2023-05-21T16:07:57.023Z,12.05
2023-05-21T16:10:33.646Z,12.38
2023-05-21T16:13:03.882Z,12.07
2023-05-21T16:15:38.543Z,12.68
2023-05-21T16:18:12.314Z,12.88
2023-05-21T16:20:49.295Z,12.23
2023-05-21T16:23:23.947Z,12.57
2023-05-21T16:26:06.365Z,12.82
2023-05-21T16:28:34.668Z,13.20
2023-05-21T16:31:05.052Z,12.07
2023-05-21T16:33:34.972Z,12.02
2023-05-21T16:36:05.530Z,11.40
2023-05-21T16:38:47.752Z,11.85
2023-05-21T16:41:24.005Z,12.57
2023-05-21T16:43:58.385Z,12.68
2023-05-21T16:46:33.608Z,12.52
2023-05-21T16:49:22.577Z,12.60
2023-05-21T16:51:55.646Z,12.15
2023-05-21T16:54:26.331Z,12.82
2023-05-21T16:56:57.697Z,12.35
2023-05-21T16:59:28.600Z,11.30
2023-05-21T17:01:56.862Z,11.65
2023-05-21T17:04:40.187Z,11.18
2023-05-21T17:07:09.884Z,11.85
2023-05-21T17:09:39.263Z,12.13
2023-05-21T17:12:17.316Z,12.23
2023-05-21T17:14:51.742Z,11.50
2023-05-21T17:18:10.870Z,12.30
2023-05-21T17:21:03.667Z,11.65
2023-05-21T17:23:42.383Z,11.73
2023-05-21T17:29:21.352Z,11.40
2023-05-21T17:31:52.100Z,10.93
2023-05-21T17:34:32.429Z,11.73
2023-05-21T17:37:24.174Z,10.98
2023-05-21T17:40:30.953Z,10.93
2023-05-21T17:43:10.756Z,10.60
2023-05-21T17:49:11.049Z,9.95
2023-05-21T17:51:39.321Z,10.90
2023-05-21T17:54:34.045Z,11.10
2023-05-21T17:57:33.422Z,11.15
2023-05-21T18:00:04.188Z,10.70
2023-05-21T18:03:10.677Z,10.80
2023-05-21T18:05:52.056Z,10.80
2023-05-21T18:08:58.668Z,10.88
2023-05-21T18:11:50.920Z,10.95
2023-05-21T18:14:21.702Z,10.27
2023-05-21T18:16:49.803Z,10.93
2023-05-21T18:19:17.928Z,11.40
2023-05-21T18:21:46.817Z,11.80
2023-05-21T18:24:22.135Z,11.05
2023-05-21T18:26:54.148Z,10.93
2023-05-21T18:29:22.348Z,11.00
2023-05-21T18:31:54.361Z,11.32
2023-05-21T18:34:22.729Z,11.00
2023-05-21T18:36:55.623Z,10.77
2023-05-21T18:39:29.080Z,11.27
2023-05-21T18:42:12.299Z,11.10
2023-05-21T18:44:41.592Z,10.88
2023-05-21T18:47:12.792Z,10.77
2023-05-21T18:49:40.810Z,11.45
2023-05-21T18:52:11.050Z,10.65
2023-05-21T18:54:44.910Z,10.80
2023-05-21T18:57:14.557Z,11.80
2023-05-21T18:59:44.318Z,11.25
2023-05-21T19:02:14.488Z,11.00
2023-05-21T19:04:45.054Z,11.23
2023-05-21T19:07:16.034Z,10.60
2023-05-21T19:09:44.232Z,11.93
2023-05-21T19:12:17.883Z,11.40
2023-05-21T19:14:48.375Z,11.63
2023-05-21T19:17:18.367Z,11.70
2023-05-21T19:19:46.490Z,11.43
2023-05-21T19:22:19.104Z,10.70
2023-05-21T19:24:50.945Z,11.27
2023-05-21T19:27:21.443Z,11.32
2023-05-21T19:29:50.017Z,10.98
2023-05-21T19:32:18.710Z,11.43
2023-05-21T19:34:46.801Z,11.60
2023-05-21T19:37:14.964Z,11.75
2023-05-21T19:39:51.139Z,11.70
2023-05-21T19:42:30.188Z,11.65
2023-05-21T19:45:09.671Z,11.88
2023-05-21T19:47:40.921Z,11.32
2023-05-21T19:50:11.313Z,10.82
2023-05-21T19:52:39.640Z,10.95
2023-05-21T19:55:10.185Z,10.52
2023-05-21T19:57:40.124Z,10.95
2023-05-21T20:00:10.403Z,10.77
2023-05-21T20:02:38.496Z,10.70
2023-05-21T20:05:07.426Z,10.68
2023-05-21T20:07:37.336Z,11.32
2023-05-21T20:10:05.863Z,10.48
2023-05-21T20:12:34.055Z,11.55
2023-05-21T20:15:03.571Z,10.80
2023-05-21T20:17:34.333Z,10.77
2023-05-21T20:20:03.413Z,10.75
2023-05-21T20:22:31.900Z,10.30
2023-05-21T20:25:01.790Z,10.40
2023-05-21T20:27:30.083Z,10.13
2023-05-21T20:29:58.065Z,11.00
2023-05-21T20:32:27.520Z,10.95
2023-05-21T20:35:03.398Z,10.85
2023-05-21T20:37:33.888Z,10.40
2023-05-21T20:40:01.951Z,10.68
2023-05-21T20:42:34.783Z,10.23
2023-05-21T20:45:03.861Z,10.27
2023-05-21T20:47:33.676Z,10.77
2023-05-21T20:50:05.043Z,9.88
2023-05-21T20:52:33.259Z,9.35
2023-05-21T20:55:04.386Z,9.65
2023-05-21T20:57:32.779Z,9.27
2023-05-21T21:00:04.689Z,9.90
2023-05-21T21:02:34.018Z,10.10
2023-05-21T21:05:03.526Z,9.68
2023-05-21T21:07:32.038Z,10.02
2023-05-21T21:10:02.454Z,9.65
2023-05-21T21:12:33.451Z,9.32
2023-05-21T21:15:01.469Z,9.55
2023-05-21T21:17:29.494Z,9.70
2023-05-21T21:19:58.853Z,9.60
2023-05-21T21:22:26.834Z,10.00
2023-05-21T21:24:54.842Z,9.25
2023-05-21T21:27:22.756Z,9.43
2023-05-21T21:29:53.251Z,9.70
2023-05-21T21:32:23.319Z,9.88
2023-05-21T21:34:51.370Z,9.18
2023-05-21T21:37:20.755Z,9.50
2023-05-21T21:39:48.698Z,9.63
2023-05-21T21:42:16.783Z,8.55
2023-05-21T21:44:44.972Z,9.15
2023-05-21T21:47:13.866Z,8.63
2023-05-21T21:49:41.910Z,8.30
2023-05-21T21:52:10.832Z,9.18
2023-05-21T21:54:40.574Z,9.07
2023-05-21T21:57:09.885Z,8.57
2023-05-21T21:59:41.922Z,9.07
2023-05-21T22:02:12.275Z,8.80
2023-05-21T22:04:40.385Z,8.45
2023-05-21T22:07:10.676Z,9.30
2023-05-21T22:09:39.956Z,8.90
2023-05-21T22:12:09.909Z,8.68
2023-05-21T22:14:40.388Z,10.13
2023-05-21T22:17:09.305Z,8.63
2023-05-21T22:19:37.457Z,8.80
2023-05-21T22:22:05.585Z,8.73
2023-05-21T22:24:33.614Z,8.45
2023-05-21T22:27:03.007Z,9.35
2023-05-21T22:29:31.055Z,8.18
2023-05-21T22:31:59.009Z,8.30
2023-05-21T22:34:27.058Z,7.88
2023-05-21T22:36:55.032Z,11.20
2023-05-21T22:39:23.008Z,9.63
2023-05-21T22:41:51.054Z,8.10
2023-05-21T22:44:20.744Z,8.00
2023-05-21T22:46:49.412Z,7.80
2023-05-21T22:49:17.478Z,8.40
2023-05-21T22:51:46.252Z,8.48
2023-05-21T22:54:14.312Z,7.88
2023-05-21T22:56:43.157Z,9.30
2023-05-21T22:59:11.181Z,8.27
2023-05-21T23:01:40.618Z,7.85
2023-05-21T23:04:08.616Z,8.10
2023-05-21T23:06:36.597Z,8.13
2023-05-21T23:09:04.852Z,8.48
2023-05-21T23:11:32.964Z,7.60
2023-05-21T23:14:01.091Z,7.93
2023-05-21T23:16:33.576Z,8.13
2023-05-21T23:19:03.396Z,8.13
2023-05-21T23:21:31.901Z,9.18
2023-05-21T23:23:59.803Z,8.13
2023-05-21T23:26:28.539Z,7.85
2023-05-21T23:28:56.554Z,7.70
2023-05-21T23:31:24.899Z,8.13
2023-05-21T23:33:56.663Z,8.27
2023-05-21T23:36:26.042Z,9.18
2023-05-21T23:38:54.074Z,8.18
2023-05-21T23:41:23.069Z,7.85
2023-05-21T23:43:51.124Z,9.20
2023-05-21T23:46:19.277Z,7.68
2023-05-21T23:48:50.074Z,8.00
2023-05-21T23:51:19.284Z,8.23
2023-05-21T23:53:49.820Z,8.60
2023-05-21T23:56:17.730Z,7.28
2023-05-21T23:58:45.885Z,7.78
